Time;durP1;ratioP1;P1;durP2;ratioP2;P2;SDS_P1;SDS_P2;PMS_P1;PMS_P2;Temp;Humidity;BMP_temperature;BMP_pressure;BME280_temperature;BME280_humidity;BME280_pressure;Samples;Min_cycle;Max_cycle;Signal;HPM_P1;HPM_P2
2021/11/19 00:01:16;;;;;;;5.20;2.75;;;;;;;21.32;46.69;102686.34;5035153;28;20025;-76
2021/11/19 00:03:42;;;;;;;4.30;2.65;;;;;;;21.55;46.14;102682.06;5035661;28;20127;-77
2021/11/19 00:06:09;;;;;;;3.30;2.42;;;;;;;21.56;46.01;102686.47;5035153;28;20029;-77
2021/11/19 00:08:35;;;;;;;3.45;2.28;;;;;;;21.39;46.31;102683.03;5036222;28;20029;-77
2021/11/19 00:11:03;;;;;;;2.95;2.20;;;;;;;21.63;45.70;102687.88;5034768;28;20047;-79
2021/11/19 00:13:30;;;;;;;4.15;2.08;;;;;;;21.60;45.46;102689.34;5034940;28;20021;-77
2021/11/19 00:15:57;;;;;;;3.78;2.00;;;;;;;21.60;45.63;102689.34;5034873;28;20055;-77
2021/11/19 00:18:22;;;;;;;2.97;1.90;;;;;;;21.52;45.81;102682.72;5033860;28;20057;-77
2021/11/19 00:20:48;;;;;;;2.97;2.25;;;;;;;21.68;45.45;102682.09;5034322;28;20053;-77
2021/11/19 00:23:15;;;;;;;4.15;2.05;;;;;;;21.68;45.41;102682.09;5034632;28;20025;-77
2021/11/19 00:25:41;;;;;;;6.40;2.13;;;;;;;21.59;45.42;102682.97;5034457;28;20044;-77
2021/11/19 00:28:08;;;;;;;4.82;1.95;;;;;;;21.66;45.44;102679.66;5034371;28;20430;-78
2021/11/19 00:30:35;;;;;;;2.05;1.50;;;;;;;21.77;44.91;102686.44;5034338;28;20132;-78
2021/11/19 00:33:01;;;;;;;3.50;1.58;;;;;;;21.62;45.10;102678.72;5034598;28;20034;-78
2021/11/19 00:35:28;;;;;;;3.90;1.55;;;;;;;21.59;44.85;102682.97;5034452;28;20531;-77
2021/11/19 00:37:56;;;;;;;2.63;1.45;;;;;;;21.66;44.95;102678.84;5034314;28;20525;-75
2021/11/19 00:40:32;;;;;;;1.92;1.30;;;;;;;21.63;44.65;102676.75;5034442;28;20028;-78
2021/11/19 00:42:58;;;;;;;2.45;1.58;;;;;;;21.54;44.83;102682.41;5034349;28;20546;-80
2021/11/19 00:45:24;;;;;;;4.28;1.90;;;;;;;21.62;44.65;102684.28;5034171;28;20033;-76
2021/11/19 00:47:52;;;;;;;1.98;1.25;;;;;;;21.97;43.70;102665.25;5034113;28;20080;-77
2021/11/19 00:50:21;;;;;;;3.03;1.25;;;;;;;21.62;44.54;102669.56;5033974;28;20480;-78
2021/11/19 00:52:46;;;;;;;6.72;1.92;;;;;;;21.90;43.92;102665.00;5034207;28;20040;-76
2021/11/19 00:55:12;;;;;;;2.75;1.60;;;;;;;21.86;44.05;102672.41;5033964;28;20029;-76
2021/11/19 00:57:38;;;;;;;2.90;1.75;;;;;;;21.92;43.70;102662.69;5034004;28;20030;-77
2021/11/19 01:00:07;;;;;;;5.82;2.10;;;;;;;21.85;43.98;102671.63;5034130;28;20112;-76
2021/11/19 01:02:35;;;;;;;3.53;1.55;;;;;;;21.61;44.55;102679.84;5034284;28;20373;-76
2021/11/19 01:05:00;;;;;;;1.90;1.30;;;;;;;21.83;43.87;102673.09;5032748;28;20025;-77
2021/11/19 01:07:26;;;;;;;1.77;1.40;;;;;;;22.00;43.56;102669.34;5033760;28;20490;-78
2021/11/19 01:09:55;;;;;;;1.75;1.50;;;;;;;21.88;43.84;102673.69;5033749;28;20030;-76
2021/11/19 01:12:26;;;;;;;3.33;1.55;;;;;;;21.74;44.20;102675.16;5033955;28;20025;-77
2021/11/19 01:14:54;;;;;;;2.33;1.20;;;;;;;21.48;44.52;102673.44;5033795;28;20029;-77
2021/11/19 01:17:24;;;;;;;2.90;1.40;;;;;;;21.62;44.46;102677.91;5033473;28;20025;-78
2021/11/19 01:20:22;;;;;;;3.60;1.30;;;;;;;21.68;44.21;102673.75;5033321;28;20472;-77
2021/11/19 01:22:51;;;;;;;3.95;1.58;;;;;;;21.62;44.19;102669.56;5033411;28;20029;-77
2021/11/19 01:25:19;;;;;;;2.45;1.30;;;;;;;21.57;44.38;102678.91;5033488;28;20030;-78
2021/11/19 01:27:45;;;;;;;1.98;1.25;;;;;;;21.55;44.42;102672.91;5033530;28;20033;-78
2021/11/19 01:30:16;;;;;;;2.70;1.65;;;;;;;21.63;44.01;102668.41;5033126;28;20120;-78
2021/11/19 01:32:42;;;;;;;3.40;1.58;;;;;;;21.61;44.18;102682.63;5033550;28;20460;-78
2021/11/19 01:35:09;;;;;;;2.40;1.48;;;;;;;21.48;44.53;102683.75;5033354;28;20032;-77
2021/11/19 01:37:35;;;;;;;1.80;1.10;;;;;;;21.41;44.64;102673.19;5033219;28;20113;-77
2021/11/19 01:40:05;;;;;;;2.60;1.30;;;;;;;21.36;44.63;102680.91;5033149;28;20400;-77
2021/11/19 01:42:34;;;;;;;4.35;1.30;;;;;;;21.32;44.61;102672.44;5033256;28;20134;-77
2021/11/19 01:45:15;;;;;;;6.13;2.05;;;;;;;21.47;44.21;102677.38;5033173;28;20487;-79
2021/11/19 01:47:45;;;;;;;1.88;1.17;;;;;;;21.28;44.77;102668.69;5032969;28;20025;-77
2021/11/19 01:50:36;;;;;;;;;;;;;;;21.13;44.99;102658.16;5033519;28;20036;-77
2021/11/19 01:53:02;;;;;;;1.60;0.90;;;;;;;21.11;44.56;102663.25;5033659;28;20299;-77
2021/11/19 01:55:33;;;;;;;4.32;1.20;;;;;;;;;;5032237;28;20121;-78
2021/11/19 01:58:07;;;;;;;2.30;0.80;;;;;;;21.27;44.62;102656.78;5032507;28;20033;-78
2021/11/19 02:00:50;;;;;;;3.67;1.25;;;;;;;21.31;44.43;102657.72;5032841;28;20072;-77
2021/11/19 02:03:17;;;;;;;2.65;1.10;;;;;;;;;;5032919;28;20033;-78
2021/11/19 02:06:21;;;;;;;1.67;0.80;;;;;;;21.32;43.86;102661.31;5032621;28;20036;-77
2021/11/19 02:08:48;;;;;;;1.45;0.80;;;;;;;21.36;44.07;102655.88;5032245;28;20385;-78
2021/11/19 02:11:36;;;;;;;1.25;0.85;;;;;;;21.23;44.19;102657.75;5032621;28;20059;-78
2021/11/19 02:14:26;;;;;;;1.60;0.80;;;;;;;21.19;44.21;102656.81;5032746;28;20026;-79
2021/11/19 02:16:56;;;;;;;3.05;1.10;;;;;;;21.25;43.93;102645.16;5032543;28;20021;-78
2021/11/19 02:19:33;;;;;;;1.90;0.80;;;;;;;21.27;43.75;102648.44;5032538;28;20511;-79
2021/11/19 02:22:23;;;;;;;1.50;0.90;;;;;;;21.45;43.17;102651.03;5032570;28;20026;-78
2021/11/19 02:24:51;;;;;;;;;;;;;;;21.36;43.24;102642.78;5032806;28;20036;-78
2021/11/19 02:27:33;;;;;;;2.08;0.90;;;;;;;21.19;43.27;102640.13;5032444;28;19909;-77
2021/11/19 02:30:10;;;;;;;1.45;1.08;;;;;;;21.03;43.84;102651.88;5032212;28;20496;-77
2021/11/19 02:32:40;;;;;;;1.60;0.95;;;;;;;21.21;43.23;102649.75;5032326;28;20022;-77
2021/11/19 02:35:10;;;;;;;1.88;1.20;;;;;;;21.25;43.05;102647.13;5032471;28;20408;-77
2021/11/19 02:37:40;;;;;;;;;;;;;;;21.13;43.10;102647.03;5032705;28;20061;-77
2021/11/19 02:40:08;;;;;;;;;;;;;;;21.07;43.11;102643.66;5032823;28;19982;-77
2021/11/19 02:42:38;;;;;;;3.33;1.33;;;;;;;21.08;43.12;102644.47;5032325;28;19923;-77
2021/11/19 02:45:15;;;;;;;2.28;1.20;;;;;;;21.05;43.17;102655.09;5031985;28;20018;-77
2021/11/19 02:47:42;;;;;;;4.00;1.55;;;;;;;21.03;43.09;102648.28;5032323;28;20025;-78
2021/11/19 02:50:08;;;;;;;4.82;1.63;;;;;;;21.14;42.87;102645.88;5032302;28;20021;-77
2021/11/19 02:52:37;;;;;;;3.40;1.23;;;;;;;21.16;42.78;102646.34;5033579;28;20029;-78
2021/11/19 02:55:07;;;;;;;2.13;1.23;;;;;;;21.12;42.87;102650.97;5057194;28;20475;-79
2021/11/19 02:57:34;;;;;;;2.92;0.95;;;;;;;21.05;42.88;102657.88;5060493;28;20025;-79
2021/11/19 02:59:59;;;;;;;2.28;0.77;;;;;;;20.94;43.10;102656.66;5062042;28;20020;-78
2021/11/19 03:02:29;;;;;;;4.47;1.75;;;;;;;20.89;43.14;102648.53;5059997;28;20025;-78
2021/11/19 03:05:00;;;;;;;1.30;1.00;;;;;;;20.77;43.41;102648.44;5058632;28;20035;-78
2021/11/19 03:07:26;;;;;;;1.50;0.93;;;;;;;20.77;43.37;102645.66;5063254;28;20151;-82
2021/11/19 03:09:58;;;;;;;1.45;0.80;;;;;;;20.59;43.75;102646.91;5065754;28;20423;-78
2021/11/19 03:12:25;;;;;;;2.15;1.10;;;;;;;20.42;44.19;102645.84;5066598;28;20028;-78
2021/11/19 03:14:53;;;;;;;1.17;0.90;;;;;;;20.39;44.28;102651.22;5060118;28;20040;-79
2021/11/19 03:17:20;;;;;;;1.65;0.90;;;;;;;20.37;44.56;102653.53;5060457;28;20060;-80
2021/11/19 03:19:47;;;;;;;1.73;1.00;;;;;;;20.55;43.92;102643.16;5060643;28;20028;-80
2021/11/19 03:22:15;;;;;;;2.95;1.08;;;;;;;20.89;43.15;102651.31;5061546;28;20113;-79
2021/11/19 03:24:42;;;;;;;3.83;1.20;;;;;;;20.92;43.34;102644.25;5066186;28;20073;-80
2021/11/19 03:27:11;;;;;;;2.42;1.00;;;;;;;20.85;43.43;102650.34;5065027;28;20098;-77
2021/11/19 03:29:38;;;;;;;2.60;1.75;;;;;;;20.88;43.33;102637.75;5063867;28;20051;-78
2021/11/19 03:32:05;;;;;;;2.03;1.00;;;;;;;20.78;43.82;102647.28;5065838;28;20024;-78
2021/11/19 03:34:31;;;;;;;1.33;0.98;;;;;;;20.78;43.69;102650.91;5065192;28;20025;-78
2021/11/19 03:36:57;;;;;;;1.98;1.00;;;;;;;20.79;43.53;102651.72;5064006;28;20395;-80
2021/11/19 03:39:28;;;;;;;2.05;1.00;;;;;;;20.71;43.84;102645.06;5065569;28;20395;-82
2021/11/19 03:41:58;;;;;;;1.60;0.98;;;;;;;20.66;43.73;102636.09;5055717;28;20030;-80
2021/11/19 03:44:32;;;;;;;2.50;0.73;;;;;;;20.36;44.39;102641.59;5066135;28;20054;-79
2021/11/19 03:47:12;;;;;;;1.25;1.10;;;;;;;20.19;44.77;102636.16;5065869;28;20487;-80
2021/11/19 03:49:40;;;;;;;2.97;1.23;;;;;;;20.03;45.14;102643.41;5065749;28;20105;-78
2021/11/19 03:52:15;;;;;;;1.40;1.08;;;;;;;19.89;45.57;102638.84;5064208;28;20066;-81
2021/11/19 03:54:42;;;;;;;3.42;1.33;;;;;;;19.77;45.97;102632.34;5063732;28;20037;-79
2021/11/19 03:57:10;;;;;;;1.83;1.20;;;;;;;19.78;45.99;102636.75;5064779;28;20055;-81
2021/11/19 03:59:36;;;;;;;1.55;1.08;;;;;;;19.81;45.94;102648.00;5065379;28;20020;-79
2021/11/19 04:02:03;;;;;;;2.72;1.40;;;;;;;19.90;45.51;102642.44;5060917;28;20021;-80
2021/11/19 04:04:31;;;;;;;4.03;1.50;;;;;;;19.90;45.42;102645.22;5066377;28;20046;-81
2021/11/19 04:07:00;;;;;;;4.25;1.73;;;;;;;20.10;44.87;102643.66;5063517;28;20025;-82
2021/11/19 04:09:26;;;;;;;3.67;2.10;;;;;;;19.98;45.14;102647.16;5065091;28;20021;-78
2021/11/19 04:11:52;;;;;;;3.50;1.90;;;;;;;19.85;45.40;102648.97;5062802;28;20080;-80
2021/11/19 04:14:17;;;;;;;3.45;1.75;;;;;;;19.79;45.47;102643.91;5065582;28;20044;-77
2021/11/19 04:16:47;;;;;;;4.70;2.30;;;;;;;19.62;46.05;102648.34;5065362;28;20028;-78
2021/11/19 04:19:14;;;;;;;;;;;;;;;19.67;45.77;102652.94;5064606;28;20025;-78
2021/11/19 04:21:40;;;;;;;3.80;2.15;;;;;;;19.64;45.71;102653.56;5063289;28;20429;-78
2021/11/19 04:24:08;;;;;;;3.17;2.33;;;;;;;19.61;45.86;102648.69;5064711;28;20025;-81
2021/11/19 04:26:35;;;;;;;5.00;2.03;;;;;;;19.55;46.04;102655.50;5064874;28;20085;-77
2021/11/19 04:29:01;;;;;;;4.85;2.30;;;;;;;19.63;45.86;102651.94;5062765;28;20124;-78
2021/11/19 04:31:29;;;;;;;5.38;2.40;;;;;;;19.65;45.78;102641.38;5064252;28;20107;-77
2021/11/19 04:33:55;;;;;;;4.47;2.08;;;;;;;19.60;45.95;102650.66;5064777;28;20032;-79
2021/11/19 04:36:20;;;;;;;4.45;2.50;;;;;;;19.52;46.09;102636.78;5062864;28;20021;-78
2021/11/19 04:38:47;;;;;;;3.58;1.85;;;;;;;19.52;46.05;102640.34;5063994;28;20036;-77
2021/11/19 04:41:15;;;;;;;4.47;2.05;;;;;;;19.53;46.29;102635.63;5064456;28;20105;-77
2021/11/19 04:43:40;;;;;;;3.60;2.20;;;;;;;19.40;46.40;102649.31;5064934;28;20102;-78
2021/11/19 04:46:08;;;;;;;3.20;2.10;;;;;;;19.34;46.63;102645.09;5061883;28;20441;-79
2021/11/19 04:48:36;;;;;;;2.97;2.08;;;;;;;19.35;46.64;102641.19;5054288;28;20031;-79
2021/11/19 04:51:10;;;;;;;3.60;2.45;;;;;;;19.32;46.93;102636.28;5054108;28;20036;-77
2021/11/19 04:53:35;;;;;;;4.82;2.70;;;;;;;19.28;46.67;102635.31;5054179;28;20108;-77
2021/11/19 04:56:02;;;;;;;4.05;2.50;;;;;;;19.40;46.60;102638.25;5054568;28;20033;-77
2021/11/19 04:58:28;;;;;;;3.45;2.45;;;;;;;19.28;46.94;102640.88;5053927;28;20111;-76
2021/11/19 05:00:58;;;;;;;4.43;2.60;;;;;;;19.28;46.89;102640.88;5054330;28;20543;-77
2021/11/19 05:03:25;;;;;;;4.60;2.42;;;;;;;19.27;46.96;102649.50;5052583;28;20035;-77
2021/11/19 05:05:52;;;;;;;3.83;2.83;;;;;;;19.25;46.98;102649.81;5054085;28;20068;-77
2021/11/19 05:08:18;;;;;;;3.67;2.40;;;;;;;19.21;47.18;102646.09;5053808;28;20033;-76
2021/11/19 05:10:46;;;;;;;7.90;3.58;;;;;;;19.12;47.37;102642.50;5053747;28;20036;-77
2021/11/19 05:13:13;;;;;;;3.72;2.45;;;;;;;19.04;47.95;102654.38;5052897;28;20028;-77
2021/11/19 05:15:43;;;;;;;3.47;2.30;;;;;;;19.03;47.63;102652.75;5052004;28;20024;-77
2021/11/19 05:18:08;;;;;;;3.70;2.42;;;;;;;19.05;47.62;102654.06;5053213;28;20471;-77
2021/11/19 05:20:34;;;;;;;3.88;2.60;;;;;;;19.09;47.51;102657.00;5053415;28;20036;-76
2021/11/19 05:23:01;;;;;;;4.15;2.83;;;;;;;19.22;47.18;102653.25;5053566;28;20525;-77
2021/11/19 05:25:30;;;;;;;3.17;2.70;;;;;;;19.22;47.26;102653.25;5053638;28;20036;-77
2021/11/19 05:27:56;;;;;;;4.18;3.05;;;;;;;19.22;47.48;102653.25;5053540;28;20048;-76
2021/11/19 05:30:22;;;;;;;8.13;3.10;;;;;;;19.22;47.40;102652.44;5052358;28;20048;-77
2021/11/19 05:32:48;;;;;;;5.20;2.97;;;;;;;19.10;47.92;102644.75;5053391;28;20025;-79
2021/11/19 05:35:15;;;;;;;5.68;3.28;;;;;;;19.22;47.65;102646.91;5053414;28;20032;-77
2021/11/19 05:37:41;;;;;;;4.07;2.95;;;;;;;19.10;48.25;102647.53;5053238;28;20419;-80
2021/11/19 05:40:09;;;;;;;3.97;2.97;;;;;;;19.15;48.15;102650.16;5053354;28;20487;-77
2021/11/19 05:42:35;;;;;;;6.50;3.55;;;;;;;19.23;48.39;102654.88;5052958;28;20021;-77
2021/11/19 05:45:01;;;;;;;5.13;3.45;;;;;;;19.41;48.07;102653.72;5053172;28;20029;-77
2021/11/19 05:47:27;;;;;;;4.55;3.35;;;;;;;19.34;48.67;102658.94;5053102;28;20028;-77
2021/11/19 05:49:52;;;;;;;8.05;4.65;;;;;;;19.54;48.41;102649.16;5052816;28;20055;-77
2021/11/19 05:52:18;;;;;;;5.18;4.13;;;;;;;19.54;48.54;102653.88;5053022;28;20025;-78
2021/11/19 05:54:44;;;;;;;5.90;3.90;;;;;;;19.53;48.62;102655.84;5051736;28;20029;-75
2021/11/19 05:57:12;;;;;;;7.32;4.97;;;;;;;19.50;48.93;102655.69;5052835;28;20033;-75
2021/11/19 05:59:39;;;;;;;5.60;4.32;;;;;;;19.57;48.96;102658.78;5051548;28;20387;-76
2021/11/19 06:02:09;;;;;;;5.20;4.43;;;;;;;19.32;50.00;102668.72;5052856;28;20033;-76
2021/11/19 06:04:37;;;;;;;5.85;5.20;;;;;;;19.46;49.63;102674.13;5052880;28;20107;-75
2021/11/19 06:07:03;;;;;;;5.80;4.25;;;;;;;19.61;49.32;102677.25;5052664;28;20578;-76
2021/11/19 06:09:31;;;;;;;7.90;5.18;;;;;;;19.72;48.96;102674.13;5052519;28;20103;-78
2021/11/19 06:12:02;;;;;;;5.95;4.93;;;;;;;19.68;49.42;102671.19;5052418;28;20040;-76
2021/11/19 06:14:34;;;;;;;5.72;4.65;;;;;;;19.84;48.98;102675.06;5051407;28;20383;-76
2021/11/19 06:17:06;;;;;;;8.88;4.72;;;;;;;19.92;48.92;102682.56;5052656;28;20021;-77
2021/11/19 06:19:36;;;;;;;6.97;4.93;;;;;;;20.01;48.77;102679.78;5052109;28;20025;-76
2021/11/19 06:22:16;;;;;;;8.10;4.25;;;;;;;19.99;48.95;102684.03;5051327;28;20029;-76
2021/11/19 06:24:43;;;;;;;;;;;;;;;19.92;49.13;102685.34;5051781;28;20025;-76
2021/11/19 06:27:12;;;;;;;4.55;3.63;;;;;;;19.78;49.52;102695.81;5051196;28;19913;-76
2021/11/19 06:29:38;;;;;;;4.78;4.28;;;;;;;19.99;48.96;102689.56;5052163;28;20060;-75
2021/11/19 06:32:04;;;;;;;5.00;4.47;;;;;;;20.08;48.58;102701.47;5050871;28;20025;-75
2021/11/19 06:34:30;;;;;;;5.47;4.88;;;;;;;20.20;48.22;102698.81;5052335;28;20068;-76
2021/11/19 06:36:56;;;;;;;9.20;5.00;;;;;;;20.34;47.89;102693.88;5052185;28;20121;-76
2021/11/19 06:39:24;;;;;;;5.63;4.30;;;;;;;20.33;48.01;102703.38;5052379;28;20037;-76
2021/11/19 06:41:50;;;;;;;6.38;4.18;;;;;;;20.26;48.01;102696.69;5051991;28;20037;-76
2021/11/19 06:44:16;;;;;;;6.18;4.32;;;;;;;20.31;48.08;102704.81;5052210;28;20094;-79
2021/11/19 06:46:42;;;;;;;6.55;5.10;;;;;;;20.30;47.95;102694.88;5051149;28;20040;-77
2021/11/19 06:49:10;;;;;;;4.93;4.07;;;;;;;20.34;47.77;102705.00;5050949;28;20033;-76
2021/11/19 06:51:37;;;;;;;9.38;4.78;;;;;;;20.20;48.42;102715.47;5052019;28;20128;-75
2021/11/19 06:54:03;;;;;;;10.10;4.88;;;;;;;20.27;48.18;102715.78;5050958;28;20032;-76
2021/11/19 06:56:29;;;;;;;5.50;4.18;;;;;;;20.39;47.80;102720.63;5052173;28;20027;-75
2021/11/19 06:58:55;;;;;;;6.95;3.50;;;;;;;20.35;47.85;102728.81;5052192;28;20033;-76
2021/11/19 07:01:20;;;;;;;3.63;2.83;;;;;;;20.50;47.49;102731.09;5052172;28;20086;-76
2021/11/19 07:03:47;;;;;;;3.25;2.70;;;;;;;20.40;47.68;102725.88;5052106;28;20032;-76
2021/11/19 07:06:14;;;;;;;10.75;4.57;;;;;;;20.33;47.85;102731.13;5052117;28;20116;-75
2021/11/19 07:08:41;;;;;;;3.58;2.80;;;;;;;20.30;47.89;102730.97;5052059;28;20029;-76
2021/11/19 07:11:14;;;;;;;5.43;3.00;;;;;;;20.18;48.19;102731.66;5051971;28;20037;-77
2021/11/19 07:13:40;;;;;;;5.88;2.53;;;;;;;20.32;47.71;102729.47;5051940;28;20037;-81
2021/11/19 07:16:06;;;;;;;4.55;2.53;;;;;;;20.32;47.73;102745.31;5050748;28;20052;-78
2021/11/19 07:18:32;;;;;;;5.30;2.28;;;;;;;20.42;47.40;102740.25;5050656;28;20086;-76
2021/11/19 07:20:58;;;;;;;2.92;2.00;;;;;;;20.20;47.98;102734.91;5051994;28;20036;-75
2021/11/19 07:23:24;;;;;;;2.85;2.10;;;;;;;20.05;48.55;102746.53;5051705;28;20025;-78
2021/11/19 07:25:50;;;;;;;3.78;2.13;;;;;;;20.36;47.59;102740.75;5051930;28;20033;-76
2021/11/19 07:28:19;;;;;;;2.75;2.00;;;;;;;20.37;47.61;102739.59;5051858;28;20024;-76
2021/11/19 07:30:51;;;;;;;4.55;2.60;;;;;;;20.42;47.47;102739.41;5051608;28;20523;-76
2021/11/19 07:33:19;;;;;;;3.47;2.45;;;;;;;20.32;47.68;102740.56;5051871;28;20090;-78
2021/11/19 07:35:45;;;;;;;4.40;2.60;;;;;;;20.39;47.52;102745.63;5051710;28;20052;-77
2021/11/19 07:38:11;;;;;;;5.78;2.70;;;;;;;20.23;48.09;102748.13;5051856;28;20033;-76
2021/11/19 07:40:39;;;;;;;4.57;2.75;;;;;;;20.26;48.17;102747.47;5051781;28;20036;-75
2021/11/19 07:43:05;;;;;;;6.72;3.22;;;;;;;20.49;47.31;102748.91;5051771;28;20036;-75
2021/11/19 07:45:36;;;;;;;4.20;3.00;;;;;;;20.60;47.03;102751.31;5051579;28;20025;-77
2021/11/19 07:48:04;;;;;;;5.47;3.17;;;;;;;20.49;47.42;102748.09;5051638;28;20110;-76
2021/11/19 07:50:31;;;;;;;4.88;2.38;;;;;;;20.64;47.05;102746.72;5051649;28;20115;-77
2021/11/19 07:52:56;;;;;;;7.85;3.25;;;;;;;20.56;47.24;102750.34;5051773;28;20056;-76
2021/11/19 07:55:22;;;;;;;4.53;2.70;;;;;;;20.60;47.24;102751.31;5054848;28;20598;-76
2021/11/19 07:57:47;;;;;;;4.30;2.70;;;;;;;20.56;47.20;102750.34;5055459;28;20426;-77
2021/11/19 08:00:17;;;;;;;3.30;2.40;;;;;;;20.65;47.01;102753.91;5055121;28;20090;-77
2021/11/19 08:02:43;;;;;;;4.25;2.28;;;;;;;20.55;47.37;102752.28;5055130;28;20032;-78
2021/11/19 08:05:08;;;;;;;4.30;2.38;;;;;;;20.61;47.22;102753.75;5055178;28;20475;-78
2021/11/19 08:07:34;;;;;;;4.20;2.13;;;;;;;20.65;47.07;102753.91;5055301;28;20029;-85
2021/11/19 08:10:01;;;;;;;3.58;2.05;;;;;;;20.52;47.35;102755.75;5053900;28;20029;-83
2021/11/19 08:12:28;;;;;;;4.88;2.05;;;;;;;20.64;46.88;102749.50;5055026;28;20059;-78
2021/11/19 08:14:53;;;;;;;10.15;3.00;;;;;;;20.62;47.20;102754.56;5055082;28;20587;-76
2021/11/19 08:17:28;;;;;;;4.65;2.30;;;;;;;20.70;47.03;102751.72;5053973;28;20061;-80
2021/11/19 08:19:54;;;;;;;5.18;2.35;;;;;;;20.57;47.21;102752.78;5053434;28;20104;-77
2021/11/19 08:22:20;;;;;;;5.15;3.08;;;;;;;20.73;46.90;102762.19;5054562;28;20029;-78
2021/11/19 08:24:46;;;;;;;5.57;2.70;;;;;;;20.73;46.95;102766.94;5060242;28;20035;-77
2021/11/19 08:27:16;;;;;;;9.82;2.92;;;;;;;20.71;46.85;102766.47;5049144;28;20028;-78
2021/11/19 08:29:46;;;;;;;10.40;3.78;;;;;;;20.58;47.46;102759.16;5037681;28;20063;-77
2021/11/19 08:32:12;;;;;;;7.05;3.88;;;;;;;20.70;47.35;102765.63;5038014;28;20075;-78
2021/11/19 08:34:40;;;;;;;17.10;3.75;;;;;;;20.70;47.08;102768.41;5037015;28;20085;-78
2021/11/19 08:37:07;;;;;;;6.30;4.00;;;;;;;20.69;47.31;102768.75;5037335;28;20040;-77
2021/11/19 08:39:32;;;;;;;9.88;4.07;;;;;;;20.83;46.71;102766.56;5038100;28;20029;-79
2021/11/19 08:41:58;;;;;;;8.35;4.00;;;;;;;20.46;47.86;102768.16;5037074;28;20039;-79
2021/11/19 08:44:24;;;;;;;10.77;4.07;;;;;;;20.82;46.89;102759.38;5036764;28;20044;-78
2021/11/19 08:46:52;;;;;;;10.50;5.40;;;;;;;20.94;46.36;102767.00;5037290;28;20443;-79
2021/11/19 08:49:25;;;;;;;8.52;5.68;;;;;;;20.86;46.47;102765.91;5037631;28;20079;-78
2021/11/19 08:51:51;;;;;;;9.77;5.50;;;;;;;20.89;46.51;102756.88;5037597;28;20041;-77
2021/11/19 08:54:17;;;;;;;12.13;6.53;;;;;;;20.90;46.49;102761.28;5037680;28;20067;-78
2021/11/19 08:56:49;;;;;;;10.25;5.38;;;;;;;20.89;46.70;102753.28;5044327;28;20099;-78
2021/11/19 08:59:16;;;;;;;9.65;6.68;;;;;;;20.88;46.59;102755.25;5053918;28;20029;-78
2021/11/19 09:01:50;;;;;;;9.60;6.47;;;;;;;20.89;46.62;102756.88;5053565;28;20025;-77
2021/11/19 09:04:17;;;;;;;10.93;6.57;;;;;;;20.90;46.65;102758.50;5052763;28;20102;-77
2021/11/19 09:06:43;;;;;;;12.38;6.60;;;;;;;21.06;46.28;102769.88;5053850;28;20029;-77
2021/11/19 09:09:10;;;;;;;7.22;6.35;;;;;;;21.15;46.08;102767.84;5053836;28;20056;-78
2021/11/19 09:11:36;;;;;;;10.93;6.25;;;;;;;21.21;46.39;102768.47;5052431;28;20471;-79
2021/11/19 09:14:03;;;;;;;12.30;6.10;;;;;;;21.24;46.18;102767.81;5052403;28;20537;-79
2021/11/19 09:17:01;;;;;;;8.95;4.88;;;;;;;21.28;46.14;102771.56;5053577;28;20111;-79
2021/11/19 09:19:43;;;;;;;5.30;3.50;;;;;;;21.27;46.29;102770.75;5085263;28;20037;-79
2021/11/19 09:22:36;;;;;;;6.50;3.08;;;;;;;21.33;45.76;102765.81;5053518;28;20044;-77
2021/11/19 09:25:10;;;;;;;5.47;2.70;;;;;;;21.27;45.82;102767.97;5052952;28;20041;-78
2021/11/19 09:27:36;;;;;;;4.97;2.50;;;;;;;21.28;45.84;102766.81;5054678;28;20028;-80
2021/11/19 09:30:14;;;;;;;8.35;3.88;;;;;;;21.21;45.85;102760.94;5060928;28;20099;-79
2021/11/19 09:32:43;;;;;;;6.90;2.63;;;;;;;21.23;45.71;102760.59;5053449;28;20075;-79
2021/11/19 09:35:09;;;;;;;7.47;2.38;;;;;;;21.16;45.84;102769.50;5053188;28;20029;-77
2021/11/19 09:37:34;;;;;;;7.03;1.70;;;;;;;21.16;45.75;102763.09;5053242;28;20083;-79
2021/11/19 09:40:04;;;;;;;6.85;1.90;;;;;;;21.10;45.73;102772.81;5053182;28;20063;-79
2021/11/19 09:42:37;;;;;;;6.85;1.77;;;;;;;21.21;45.36;102766.50;5062337;28;20028;-78
2021/11/19 09:45:48;;;;;;;4.95;1.75;;;;;;;21.28;45.35;102766.81;5055490;28;20117;-79
2021/11/19 09:48:38;;;;;;;6.00;1.40;;;;;;;21.21;45.48;102769.28;5032565;28;20038;-78
2021/11/19 09:51:41;;;;;;;6.65;1.58;;;;;;;21.12;45.66;102771.31;5031710;28;20396;-79
2021/11/19 09:54:12;;;;;;;4.05;1.65;;;;;;;21.28;45.18;102771.56;5051895;28;20570;-79
2021/11/19 09:56:43;;;;;;;5.72;1.88;;;;;;;21.21;45.28;102768.47;5052949;28;20025;-79
2021/11/19 09:59:46;;;;;;;5.40;1.77;;;;;;;21.25;45.23;102766.66;5052467;28;20021;-79
2021/11/19 10:02:36;;;;;;;6.38;2.08;;;;;;;21.29;45.17;102768.44;5053028;28;20041;-80
2021/11/19 10:05:15;;;;;;;5.68;1.50;;;;;;;21.29;45.30;102779.56;5047418;28;20048;-79
2021/11/19 10:07:58;;;;;;;7.45;1.80;;;;;;;21.27;45.45;102769.91;5048386;28;20071;-79
2021/11/19 10:10:33;;;;;;;4.90;1.25;;;;;;;21.33;45.20;102780.53;5050404;28;20044;-80
2021/11/19 10:13:10;;;;;;;1.75;1.35;;;;;;;21.67;44.76;102784.19;5046330;28;20036;-79
2021/11/19 10:16:04;;;;;;;6.03;1.35;;;;;;;21.69;45.01;102786.63;5051403;28;20386;-79
2021/11/19 10:18:35;;;;;;;1.98;1.20;;;;;;;21.66;45.10;102779.00;5046167;28;20036;-79
2021/11/19 10:21:07;;;;;;;2.92;1.30;;;;;;;21.86;44.77;102776.19;5052462;28;20036;-78
2021/11/19 10:23:45;;;;;;;3.33;1.60;;;;;;;21.66;44.61;102784.56;5051062;28;20033;-81
2021/11/19 10:26:14;;;;;;;4.15;1.95;;;;;;;21.76;44.50;102787.72;5051017;28;20032;-79
2021/11/19 10:28:53;;;;;;;1.92;1.27;;;;;;;21.55;44.71;102778.59;5041204;28;20036;-79
2021/11/19 10:31:23;;;;;;;2.30;1.23;;;;;;;21.62;44.56;102778.88;5035442;28;20482;-79
2021/11/19 10:34:06;;;;;;;4.03;2.50;;;;;;;21.70;44.65;102793.84;5034725;28;20297;-79
2021/11/19 10:37:02;;;;;;;8.00;1.70;;;;;;;21.76;44.63;102782.16;5035660;28;20017;-79
2021/11/19 10:40:03;;;;;;;3.08;1.30;;;;;;;21.83;44.15;102787.19;5040997;28;20033;-81
2021/11/19 10:42:47;;;;;;;7.20;2.80;;;;;;;21.88;44.26;102789.75;5041664;28;20408;-81
2021/11/19 10:45:42;;;;;;;13.13;2.70;;;;;;;22.04;44.33;102790.75;5049607;28;20027;-81
2021/11/19 10:48:10;;;;;;;6.28;1.67;;;;;;;22.13;43.81;102793.47;5052131;28;20021;-78
2021/11/19 10:51:04;;;;;;;3.78;1.58;;;;;;;22.21;43.93;102798.16;5051899;28;20167;-79
2021/11/19 10:53:48;;;;;;;6.40;1.77;;;;;;;22.27;43.40;102793.19;5051843;28;20025;-78
2021/11/19 10:56:29;;;;;;;1.27;1.02;;;;;;;22.17;43.56;102800.00;5051412;28;20075;-80
2021/11/19 10:59:00;;;;;;;1.38;1.00;;;;;;;22.29;43.63;102797.28;5048639;28;20506;-80
2021/11/19 11:01:38;;;;;;;1.90;1.30;;;;;;;22.17;43.78;102794.44;5051818;28;20029;-79
2021/11/19 11:04:07;;;;;;;4.28;1.40;;;;;;;21.93;44.15;102797.91;5050337;28;20017;-78
2021/11/19 11:06:52;;;;;;;3.65;1.23;;;;;;;21.99;43.79;102795.72;5050255;28;20032;-81
2021/11/19 11:09:34;;;;;;;3.95;1.50;;;;;;;21.88;43.72;102795.34;5056464;28;20029;-82
2021/11/19 11:12:21;;;;;;;3.20;1.13;;;;;;;21.84;44.07;102803.56;5059635;28;20041;-79
2021/11/19 11:15:01;;;;;;;2.53;1.13;;;;;;;21.81;43.69;102800.63;5051428;28;20025;-80
2021/11/19 11:17:32;;;;;;;3.42;1.40;;;;;;;21.96;43.63;102808.34;5050375;28;20487;-81
2021/11/19 11:19:59;;;;;;;4.10;1.10;;;;;;;22.15;43.24;102799.53;5061576;28;20090;-81
2021/11/19 11:22:30;;;;;;;6.75;1.38;;;;;;;22.10;43.01;102805.31;5055757;28;20410;-81
2021/11/19 11:25:03;;;;;;;3.13;1.27;;;;;;;22.17;43.11;102791.66;5051589;28;20033;-81
2021/11/19 11:27:54;;;;;;;1.83;0.85;;;;;;;22.12;43.01;102797.44;5051714;28;20052;-81
2021/11/19 11:30:44;;;;;;;10.90;1.85;;;;;;;22.13;43.04;102788.72;5054426;28;20040;-80
2021/11/19 11:33:31;;;;;;;0.60;0.60;;;;;;;22.07;42.82;102790.09;5055005;28;20443;-79
2021/11/19 11:36:10;;;;;;;2.10;1.10;;;;;;;22.08;43.27;102793.72;5054336;28;20029;-78
2021/11/19 11:39:06;;;;;;;2.60;0.68;;;;;;;22.22;42.76;102791.44;5055461;28;20422;-80
2021/11/19 11:41:54;;;;;;;8.07;1.45;;;;;;;22.09;42.72;102779.44;5055263;28;20455;-78
2021/11/19 11:44:44;;;;;;;8.50;4.70;;;;;;;21.69;43.36;102781.06;5055093;28;20037;-79